createdAt,value
2019-01-15T00:00:09.967Z,77.25
2019-01-15T00:02:41.105Z,76.39
2019-01-15T00:05:12.672Z,76.26
2019-01-15T00:07:43.754Z,76.02
2019-01-15T00:10:14.912Z,73.88
2019-01-15T00:12:45.987Z,73.98
2019-01-15T00:15:17.230Z,73.20
2019-01-15T00:17:48.365Z,72.85
2019-01-15T00:20:19.503Z,73.12
2019-01-15T00:22:50.623Z,73.49
2019-01-15T00:25:21.943Z,74.06
2019-01-15T00:27:52.996Z,74.98
2019-01-15T00:30:24.134Z,75.57
2019-01-15T00:32:55.339Z,75.95
2019-01-15T00:35:26.406Z,76.08
2019-01-15T00:37:57.475Z,76.29
2019-01-15T00:40:28.633Z,76.11
2019-01-15T00:42:59.833Z,76.17
2019-01-15T00:45:32.085Z,76.31
2019-01-15T00:48:04.314Z,76.31
2019-01-15T00:50:35.387Z,76.62
2019-01-15T00:53:06.478Z,77.28
2019-01-15T00:55:37.578Z,76.90
2019-01-15T00:58:08.671Z,76.79
2019-01-15T01:00:41.502Z,77.21
2019-01-15T01:03:12.809Z,77.08
2019-01-15T01:05:44.031Z,77.38
2019-01-15T01:08:15.472Z,76.71
2019-01-15T01:10:46.604Z,76.68
2019-01-15T01:13:17.622Z,76.46
2019-01-15T01:15:48.743Z,76.64
2019-01-15T01:18:20.063Z,76.42
2019-01-15T01:20:51.391Z,76.71
2019-01-15T01:23:22.518Z,76.77
2019-01-15T01:25:53.595Z,77.05
2019-01-15T01:28:24.572Z,77.04
2019-01-15T01:30:55.588Z,76.81
2019-01-15T01:33:26.971Z,77.24
2019-01-15T01:35:58.281Z,77.13
2019-01-15T01:38:29.487Z,77.65
2019-01-15T01:41:00.616Z,76.87
2019-01-15T01:43:31.739Z,76.41
2019-01-15T01:46:02.925Z,76.42
2019-01-15T01:48:34.005Z,77.07
2019-01-15T01:51:05.116Z,76.85
2019-01-15T01:53:36.170Z,76.82
2019-01-15T01:56:07.337Z,76.76
2019-01-15T01:58:38.476Z,76.89
2019-01-15T02:01:09.661Z,76.90
2019-01-15T02:03:40.881Z,76.70
2019-01-15T02:06:12.137Z,76.70
2019-01-15T02:08:43.157Z,76.38
2019-01-15T02:11:14.300Z,76.39
2019-01-15T02:13:45.450Z,76.40
2019-01-15T02:16:16.628Z,76.62
2019-01-15T02:18:47.675Z,76.19
2019-01-15T02:21:18.803Z,75.82
2019-01-15T02:23:50.195Z,75.35
2019-01-15T02:26:21.259Z,75.48
2019-01-15T02:28:52.326Z,75.69
2019-01-15T02:31:23.460Z,75.97
2019-01-15T02:33:55.082Z,75.87
2019-01-15T02:36:26.275Z,75.95
2019-01-15T02:38:57.331Z,76.29
2019-01-15T02:41:28.494Z,76.53
2019-01-15T02:44:00.038Z,76.56
2019-01-15T02:46:31.054Z,76.49
2019-01-15T02:49:02.232Z,77.05
2019-01-15T02:51:33.560Z,77.22
2019-01-15T02:54:04.774Z,77.62
2019-01-15T02:56:35.810Z,77.41
2019-01-15T02:59:06.937Z,77.51
2019-01-15T03:01:37.971Z,77.64
2019-01-15T03:04:09.087Z,77.49
2019-01-15T03:06:40.262Z,77.97
2019-01-15T03:09:11.470Z,77.89
2019-01-15T03:11:42.717Z,78.55
2019-01-15T03:14:13.878Z,79.60
2019-01-15T03:16:45.015Z,80.48
2019-01-15T03:19:16.195Z,80.40
2019-01-15T03:21:47.270Z,80.15
2019-01-15T03:24:18.600Z,80.29
2019-01-15T03:26:49.739Z,80.51
2019-01-15T03:29:20.833Z,80.35
2019-01-15T03:31:51.846Z,80.07
2019-01-15T03:34:22.837Z,80.20
2019-01-15T03:36:53.926Z,79.83
2019-01-15T03:39:25.105Z,79.61
2019-01-15T03:41:56.466Z,79.12
2019-01-15T03:44:27.600Z,79.06
2019-01-15T03:46:58.663Z,78.74
2019-01-15T03:49:29.807Z,78.53
2019-01-15T03:52:01.040Z,78.65
2019-01-15T03:54:32.180Z,78.37
2019-01-15T03:57:03.453Z,77.87
2019-01-15T03:59:34.509Z,77.72
2019-01-15T04:02:05.851Z,77.49
2019-01-15T04:04:37.335Z,77.29
2019-01-15T04:07:09.133Z,76.95
2019-01-15T04:09:40.814Z,75.37
2019-01-15T04:12:11.978Z,75.56
2019-01-15T04:14:43.060Z,74.80
2019-01-15T04:17:14.242Z,74.66
2019-01-15T04:19:45.460Z,74.74
2019-01-15T04:22:16.549Z,74.00
2019-01-15T04:24:47.562Z,74.00
2019-01-15T04:27:18.743Z,72.26
2019-01-15T04:29:50.127Z,72.68
2019-01-15T04:32:21.222Z,74.53
2019-01-15T04:34:52.332Z,74.38
2019-01-15T04:37:23.445Z,74.64
2019-01-15T04:39:54.515Z,74.53
2019-01-15T04:42:25.737Z,74.53
2019-01-15T04:44:56.831Z,74.41
2019-01-15T04:47:28.100Z,74.89
2019-01-15T04:49:59.226Z,74.42
2019-01-15T04:52:30.482Z,75.02
2019-01-15T04:55:01.544Z,75.44
2019-01-15T04:57:32.582Z,75.92
2019-01-15T05:00:05.067Z,75.28
2019-01-15T05:02:37.346Z,75.78
2019-01-15T05:05:08.836Z,76.58
2019-01-15T05:07:39.999Z,76.36
2019-01-15T05:10:13.094Z,76.19
2019-01-15T05:12:44.425Z,76.57
2019-01-15T05:15:15.789Z,76.82
2019-01-15T05:17:47.008Z,76.76
2019-01-15T05:20:18.358Z,76.94
2019-01-15T05:22:49.399Z,77.34
2019-01-15T05:25:20.910Z,76.92
2019-01-15T05:27:52.071Z,76.78
2019-01-15T05:30:26.498Z,76.72
2019-01-15T05:32:57.611Z,77.22
2019-01-15T05:35:28.853Z,77.69
2019-01-15T05:38:00.043Z,77.59
2019-01-15T05:40:31.240Z,77.70
2019-01-15T05:43:02.244Z,77.43
2019-01-15T05:45:35.857Z,77.26
2019-01-15T05:48:14.042Z,76.75
2019-01-15T05:50:53.245Z,76.33
2019-01-15T05:53:24.246Z,75.60
2019-01-15T05:55:55.289Z,75.53
2019-01-15T05:58:26.320Z,75.20
2019-01-15T06:00:57.336Z,74.58
2019-01-15T06:03:28.404Z,74.59
2019-01-15T06:05:59.479Z,74.68
2019-01-15T06:08:30.567Z,74.50
2019-01-15T06:11:01.729Z,74.63
2019-01-15T06:13:32.922Z,74.77
2019-01-15T06:16:04.245Z,74.69
2019-01-15T06:18:35.333Z,74.91
2019-01-15T06:21:06.633Z,74.80
2019-01-15T06:23:38.162Z,74.57
2019-01-15T06:26:09.317Z,74.63
2019-01-15T06:28:40.527Z,74.61
2019-01-15T06:31:12.007Z,75.00
2019-01-15T06:33:43.254Z,74.85
2019-01-15T06:36:14.612Z,75.00
2019-01-15T06:38:45.700Z,75.01
2019-01-15T06:41:16.938Z,75.17
2019-01-15T06:43:50.155Z,75.15
2019-01-15T06:46:21.273Z,75.37
2019-01-15T06:48:52.499Z,74.80
2019-01-15T06:51:23.680Z,75.03
2019-01-15T06:53:54.804Z,75.14
2019-01-15T06:56:25.880Z,75.40
2019-01-15T06:58:57.133Z,75.66
2019-01-15T07:01:28.310Z,75.26
2019-01-15T07:03:59.514Z,75.09
2019-01-15T07:06:30.566Z,74.61
2019-01-15T07:09:01.795Z,75.10
2019-01-15T07:11:34.116Z,74.49
2019-01-15T07:14:05.679Z,74.65
2019-01-15T07:16:37.080Z,75.17
2019-01-15T07:19:08.302Z,74.94
2019-01-15T07:21:39.548Z,75.23
2019-01-15T07:24:10.739Z,74.99
2019-01-15T07:26:43.408Z,75.32
2019-01-15T07:29:14.438Z,74.87
2019-01-15T07:31:45.640Z,74.37
2019-01-15T07:34:16.665Z,73.76
2019-01-15T07:36:47.704Z,74.00
2019-01-15T07:39:18.929Z,74.08
2019-01-15T07:41:50.072Z,74.40
2019-01-15T07:44:21.293Z,74.96
2019-01-15T07:46:52.394Z,74.32
2019-01-15T07:49:23.728Z,74.18
2019-01-15T07:51:54.998Z,73.96
2019-01-15T07:54:26.095Z,73.69
2019-01-15T07:56:57.192Z,73.81
2019-01-15T07:59:28.370Z,73.89
2019-01-15T08:01:59.602Z,72.91
2019-01-15T08:04:30.812Z,72.79
2019-01-15T08:07:01.930Z,71.96
2019-01-15T08:09:33.117Z,72.40
2019-01-15T08:12:04.253Z,72.21
2019-01-15T08:14:35.402Z,71.53
2019-01-15T08:17:07.527Z,71.09
2019-01-15T08:19:38.570Z,70.67
2019-01-15T08:22:09.759Z,70.10
2019-01-15T08:24:40.872Z,69.84
2019-01-15T08:27:11.946Z,69.56
2019-01-15T08:29:43.178Z,69.83
2019-01-15T08:32:14.341Z,69.71
2019-01-15T08:34:45.432Z,69.87
2019-01-15T08:37:16.680Z,69.52
2019-01-15T08:39:47.678Z,68.83
2019-01-15T08:42:18.758Z,68.67
2019-01-15T08:44:50.062Z,68.74
2019-01-15T08:47:22.186Z,68.07
2019-01-15T08:49:53.442Z,68.08
2019-01-15T08:52:24.604Z,68.59
2019-01-15T08:54:55.641Z,67.98
2019-01-15T08:57:26.851Z,67.94
2019-01-15T08:59:57.923Z,67.17
2019-01-15T09:02:29.053Z,67.39
2019-01-15T09:05:00.260Z,68.04
2019-01-15T09:07:31.659Z,67.55
2019-01-15T09:10:02.879Z,67.48
2019-01-15T09:12:34.091Z,67.51
2019-01-15T09:15:06.714Z,68.01
2019-01-15T09:17:37.925Z,67.60
2019-01-15T09:20:12.393Z,67.98
2019-01-15T09:22:43.598Z,67.28
2019-01-15T09:25:14.742Z,67.42
2019-01-15T09:27:46.935Z,67.69
2019-01-15T09:30:20.163Z,67.76
2019-01-15T09:32:51.563Z,67.25
2019-01-15T09:35:22.835Z,67.28
2019-01-15T09:37:54.248Z,66.92
2019-01-15T09:40:25.583Z,66.74
2019-01-15T09:42:56.730Z,67.58
2019-01-15T09:45:27.992Z,67.01
2019-01-15T09:48:07.299Z,66.49
2019-01-15T09:50:38.448Z,66.67
2019-01-15T09:53:09.739Z,66.51
2019-01-15T09:55:40.941Z,65.59
2019-01-15T09:58:12.085Z,65.39
2019-01-15T10:00:43.208Z,65.43
2019-01-15T10:03:14.348Z,65.86
2019-01-15T10:05:45.533Z,65.67
2019-01-15T10:08:16.763Z,66.07
2019-01-15T10:10:47.903Z,65.91
2019-01-15T10:13:18.960Z,66.61
2019-01-15T10:15:50.121Z,66.38
2019-01-15T10:18:22.343Z,66.41
2019-01-15T10:20:53.529Z,66.23
2019-01-15T10:23:24.763Z,66.29
2019-01-15T10:25:55.880Z,65.03
2019-01-15T10:28:26.877Z,64.73
2019-01-15T10:31:41.067Z,64.92
2019-01-15T10:34:21.832Z,64.41
2019-01-15T10:36:51.437Z,63.59
2019-01-15T10:39:22.576Z,63.77
2019-01-15T10:41:53.814Z,63.60
2019-01-15T10:44:25.017Z,63.38
2019-01-15T10:46:56.024Z,62.35
2019-01-15T10:49:27.145Z,62.15
2019-01-15T10:51:58.348Z,61.77
2019-01-15T10:54:29.484Z,62.13
2019-01-15T10:57:00.742Z,61.28
2019-01-15T10:59:31.876Z,61.11
2019-01-15T11:02:03.322Z,60.99
2019-01-15T11:04:34.440Z,60.88
2019-01-15T11:07:05.536Z,61.02
2019-01-15T11:09:36.767Z,59.93
2019-01-15T11:12:08.006Z,59.82
2019-01-15T11:14:39.982Z,59.75
2019-01-15T11:17:11.148Z,59.30
2019-01-15T11:19:42.247Z,58.04
2019-01-15T11:22:13.554Z,58.44
2019-01-15T11:24:44.543Z,59.37
2019-01-15T11:27:15.901Z,58.33
2019-01-15T11:29:47.042Z,58.19
2019-01-15T11:32:18.084Z,59.44
2019-01-15T11:34:49.307Z,57.76
2019-01-15T11:37:21.914Z,58.37
2019-01-15T11:39:53.078Z,58.22
2019-01-15T11:42:24.198Z,58.72
2019-01-15T11:44:55.269Z,58.43
2019-01-15T11:47:26.488Z,58.37
2019-01-15T11:49:57.651Z,57.93
2019-01-15T11:52:28.985Z,58.10
2019-01-15T11:54:59.963Z,58.03
2019-01-15T11:57:31.195Z,57.75
2019-01-15T12:00:02.362Z,57.69
2019-01-15T12:02:51.626Z,57.35
2019-01-15T12:05:34.140Z,56.96
2019-01-15T12:08:19.639Z,56.80
2019-01-15T12:11:22.117Z,56.78
2019-01-15T12:14:18.226Z,56.87
2019-01-15T12:17:11.425Z,55.97
2019-01-15T12:20:10.623Z,55.08
2019-01-15T12:23:06.104Z,54.59
2019-01-15T12:25:49.750Z,55.46
2019-01-15T12:28:46.092Z,56.15
2019-01-15T12:31:39.454Z,56.14
2019-01-15T12:34:26.089Z,56.99
2019-01-15T12:37:19.848Z,56.20
2019-01-15T12:40:25.509Z,56.41
2019-01-15T12:43:14.394Z,56.11
2019-01-15T12:46:03.351Z,56.13
2019-01-15T12:49:11.945Z,56.28
2019-01-15T12:52:20.647Z,57.47
2019-01-15T12:55:10.795Z,56.35
2019-01-15T12:57:59.565Z,56.97
2019-01-15T13:00:48.363Z,56.98
2019-01-15T13:03:37.297Z,56.65
2019-01-15T13:06:26.096Z,56.96
2019-01-15T13:09:21.891Z,57.41
2019-01-15T13:12:14.843Z,56.69
2019-01-15T13:15:00.461Z,54.62
2019-01-15T13:17:42.630Z,53.61
2019-01-15T13:20:39.497Z,54.43
2019-01-15T13:23:29.603Z,56.43
2019-01-15T13:26:19.891Z,55.85
2019-01-15T13:29:08.888Z,55.03
2019-01-15T13:32:01.715Z,55.94
2019-01-15T13:34:54.793Z,55.67
2019-01-15T13:37:42.335Z,56.38
2019-01-15T13:40:35.336Z,56.96
2019-01-15T13:43:24.413Z,56.28
2019-01-15T13:46:29.715Z,56.69
2019-01-15T13:49:21.118Z,56.88
2019-01-15T13:52:23.333Z,57.38
2019-01-15T13:55:22.568Z,57.43
2019-01-15T13:58:11.556Z,57.73
2019-01-15T14:01:01.650Z,57.49
2019-01-15T14:03:54.623Z,55.54
2019-01-15T14:06:43.757Z,55.41
2019-01-15T14:09:39.927Z,56.50
2019-01-15T14:12:26.774Z,58.07
2019-01-15T14:15:35.536Z,58.32
2019-01-15T14:18:34.610Z,60.16
2019-01-15T14:21:23.403Z,59.90
2019-01-15T14:24:22.451Z,59.69
2019-01-15T14:27:05.931Z,60.24
2019-01-15T14:29:50.772Z,60.85
2019-01-15T14:32:39.981Z,60.17
2019-01-15T14:35:29.536Z,61.41
2019-01-15T14:38:28.592Z,62.47
2019-01-15T14:41:17.769Z,62.23
2019-01-15T14:44:18.575Z,62.35
2019-01-15T14:47:18.738Z,63.47
2019-01-15T14:50:08.329Z,63.07
2019-01-15T14:52:57.458Z,63.92
2019-01-15T14:56:06.037Z,63.81
2019-01-15T14:59:01.738Z,64.96
2019-01-15T15:02:00.863Z,64.56
2019-01-15T15:05:02.871Z,65.10
2019-01-15T15:08:08.021Z,65.70
2019-01-15T15:11:00.751Z,65.81
2019-01-15T15:13:53.799Z,66.03
2019-01-15T15:16:37.519Z,66.79
2019-01-15T15:19:32.598Z,66.84
2019-01-15T15:22:21.720Z,66.85
2019-01-15T15:25:14.623Z,66.38
2019-01-15T15:28:19.898Z,66.33
2019-01-15T15:31:18.854Z,66.79
2019-01-15T15:34:21.019Z,66.49
2019-01-15T15:37:17.368Z,66.39
2019-01-15T15:40:06.134Z,66.59
2019-01-15T15:43:02.472Z,67.18
2019-01-15T15:45:56.531Z,66.68
2019-01-15T15:48:44.482Z,66.04
2019-01-15T15:51:33.143Z,65.73
2019-01-15T15:54:22.481Z,65.89
2019-01-15T15:57:18.744Z,66.09
2019-01-15T16:00:07.793Z,66.05
2019-01-15T16:02:51.405Z,65.62
2019-01-15T16:05:41.564Z,66.08
2019-01-15T16:08:40.934Z,66.29
2019-01-15T16:11:40.074Z,66.53
2019-01-15T16:14:29.021Z,66.32
2019-01-15T16:17:15.076Z,66.51
2019-01-15T16:19:59.506Z,66.18
2019-01-15T16:22:48.847Z,66.73
2019-01-15T16:25:51.317Z,66.55
2019-01-15T16:28:40.007Z,66.16
2019-01-15T16:31:48.601Z,66.28
2019-01-15T16:34:43.146Z,65.84
2019-01-15T16:37:31.884Z,66.18
2019-01-15T16:40:20.880Z,65.81
2019-01-15T16:43:13.926Z,65.66
2019-01-15T16:46:16.102Z,65.44
2019-01-15T16:49:05.567Z,64.95
2019-01-15T16:52:04.761Z,65.38
2019-01-15T16:54:55.044Z,64.89
2019-01-15T16:57:39.514Z,64.85
2019-01-15T17:00:40.898Z,65.02
2019-01-15T17:03:29.695Z,65.16
2019-01-15T17:06:19.842Z,64.92
2019-01-15T17:09:19.146Z,65.17
2019-01-15T17:12:12.223Z,65.13
2019-01-15T17:15:02.585Z,65.26
2019-01-15T17:17:58.596Z,65.43
2019-01-15T17:20:51.787Z,65.18
2019-01-15T17:23:43.667Z,65.40
2019-01-15T17:26:39.679Z,65.63
2019-01-15T17:29:36.151Z,65.88
2019-01-15T17:32:19.350Z,65.21
2019-01-15T17:35:27.545Z,65.40
2019-01-15T17:38:17.857Z,65.20
2019-01-15T17:41:23.102Z,65.58
2019-01-15T17:44:08.983Z,65.50
2019-01-15T17:47:02.066Z,65.08
2019-01-15T17:49:46.618Z,65.13
2019-01-15T17:52:43.624Z,65.37
2019-01-15T17:55:20.952Z,65.46
2019-01-15T17:58:06.940Z,65.61
2019-01-15T18:01:01.089Z,64.95
2019-01-15T18:04:02.467Z,64.97
2019-01-15T18:06:58.616Z,65.33
2019-01-15T18:10:01.061Z,64.67
2019-01-15T18:12:49.818Z,64.89
2019-01-15T18:15:45.657Z,64.51
2019-01-15T18:18:31.352Z,64.48
2019-01-15T18:21:13.530Z,64.94
2019-01-15T18:24:06.384Z,64.88
2019-01-15T18:26:56.528Z,64.83
2019-01-15T18:29:55.338Z,64.95
2019-01-15T18:32:43.989Z,64.93
2019-01-15T18:35:29.010Z,65.14
2019-01-15T18:38:15.298Z,65.39
2019-01-15T18:41:02.553Z,65.48
2019-01-15T18:44:02.579Z,64.72
2019-01-15T18:46:55.887Z,65.28
2019-01-15T18:49:45.108Z,65.16
2019-01-15T18:52:32.926Z,65.01
2019-01-15T18:55:22.785Z,65.90
2019-01-15T18:58:15.920Z,65.20
2019-01-15T19:01:06.001Z,65.79
2019-01-15T19:04:02.075Z,65.98
2019-01-15T19:06:52.221Z,65.77
2019-01-15T19:09:54.724Z,65.47
2019-01-15T19:12:43.680Z,66.10
2019-01-15T19:15:49.408Z,65.60
2019-01-15T19:18:42.464Z,65.89
2019-01-15T19:21:31.514Z,66.41
2019-01-15T19:24:21.560Z,66.41
2019-01-15T19:27:10.438Z,66.70
2019-01-15T19:30:00.499Z,66.92
2019-01-15T19:32:44.054Z,66.99
2019-01-15T19:35:26.056Z,67.12
2019-01-15T19:38:40.084Z,67.25
2019-01-15T19:41:25.546Z,67.32
2019-01-15T19:44:14.592Z,67.45
2019-01-15T19:47:01.541Z,67.49
2019-01-15T19:49:52.335Z,67.83
2019-01-15T19:52:46.833Z,67.63
2019-01-15T19:55:37.022Z,67.74
2019-01-15T19:58:28.005Z,67.99
2019-01-15T20:01:22.323Z,68.00
2019-01-15T20:04:12.607Z,67.86
2019-01-15T20:07:17.780Z,68.10
2019-01-15T20:10:23.014Z,68.37
2019-01-15T20:13:13.003Z,68.29
2019-01-15T20:16:09.115Z,68.86
2019-01-15T20:19:09.129Z,69.00
2019-01-15T20:21:56.738Z,68.82
2019-01-15T20:24:46.223Z,68.68
2019-01-15T20:27:48.599Z,68.90
2019-01-15T20:30:36.734Z,68.66
2019-01-15T20:33:22.329Z,68.92
2019-01-15T20:36:15.448Z,68.59
2019-01-15T20:39:06.981Z,68.81
2019-01-15T20:41:56.241Z,69.14
2019-01-15T20:44:46.224Z,69.20
2019-01-15T20:47:45.563Z,69.49
2019-01-15T20:50:39.414Z,69.26
2019-01-15T20:53:21.667Z,69.19
2019-01-15T20:56:04.659Z,69.47
2019-01-15T20:58:53.653Z,69.51
2019-01-15T21:01:35.825Z,69.54
2019-01-15T21:04:22.642Z,69.31
2019-01-15T21:07:01.653Z,68.73
2019-01-15T21:10:04.073Z,69.63
2019-01-15T21:12:54.133Z,69.65
2019-01-15T21:15:44.284Z,69.82
2019-01-15T21:18:43.503Z,70.27
2019-01-15T21:21:40.000Z,70.50
2019-01-15T21:24:30.079Z,70.44
2019-01-15T21:27:19.178Z,70.34
2019-01-15T21:30:12.466Z,70.62
2019-01-15T21:33:01.245Z,70.83
2019-01-15T21:36:06.573Z,70.81
2019-01-15T21:38:57.049Z,71.36
2019-01-15T21:41:49.289Z,70.97
2019-01-15T21:44:38.304Z,71.35
2019-01-15T21:47:27.114Z,71.20
2019-01-15T21:50:17.426Z,70.98
2019-01-15T21:53:07.661Z,71.26
2019-01-15T21:56:16.445Z,71.49
2019-01-15T21:59:09.598Z,71.48
2019-01-15T22:01:59.374Z,71.57
2019-01-15T22:04:54.993Z,71.54
2019-01-15T22:07:45.676Z,71.69
2019-01-15T22:10:41.918Z,71.96
2019-01-15T22:13:50.389Z,72.25
2019-01-15T22:16:39.416Z,71.64
2019-01-15T22:19:47.510Z,71.79
2019-01-15T22:22:37.473Z,71.92
2019-01-15T22:25:27.019Z,72.06
2019-01-15T22:28:26.548Z,72.17
2019-01-15T22:31:16.742Z,72.38
2019-01-15T22:34:13.131Z,72.36
2019-01-15T22:37:03.326Z,72.42
2019-01-15T22:39:52.102Z,72.39
2019-01-15T22:42:54.354Z,72.05
2019-01-15T22:45:46.316Z,72.60
2019-01-15T22:48:42.591Z,72.95
2019-01-15T22:51:30.663Z,72.74
2019-01-15T22:54:22.167Z,73.01
2019-01-15T22:57:11.136Z,72.99
2019-01-15T23:00:01.980Z,72.79
2019-01-15T23:02:59.446Z,72.67
2019-01-15T23:05:46.590Z,73.13
2019-01-15T23:08:45.933Z,72.26
2019-01-15T23:11:34.650Z,72.15
2019-01-15T23:14:28.015Z,72.72
2019-01-15T23:17:18.102Z,73.09
2019-01-15T23:20:01.940Z,72.93
2019-01-15T23:22:52.077Z,73.16
2019-01-15T23:25:48.351Z,73.23
2019-01-15T23:28:30.675Z,73.45
2019-01-15T23:31:23.512Z,73.88
2019-01-15T23:34:12.217Z,75.03
2019-01-15T23:37:08.229Z,74.61
2019-01-15T23:39:57.103Z,72.98
2019-01-15T23:42:56.154Z,73.12
2019-01-15T23:45:49.004Z,73.40
2019-01-15T23:48:41.943Z,73.37
2019-01-15T23:51:30.985Z,73.64
2019-01-15T23:54:29.721Z,73.86
2019-01-15T23:57:19.956Z,74.12
